createdAt,value
2018-10-17T00:05:02.225Z,85.63
2018-10-17T00:10:05.290Z,85.14
2018-10-17T00:15:08.093Z,85.64
2018-10-17T00:20:10.669Z,85.57
2018-10-17T00:25:12.836Z,85.71
2018-10-17T00:30:14.890Z,85.65
2018-10-17T00:35:17.043Z,86.73
2018-10-17T00:40:19.261Z,85.52
2018-10-17T00:45:21.310Z,85.22
2018-10-17T00:50:23.418Z,85.16
2018-10-17T00:55:25.519Z,85.22
2018-10-17T01:00:27.682Z,84.71
2018-10-17T01:05:29.828Z,84.87
2018-10-17T01:10:31.901Z,84.81
2018-10-17T01:15:34.023Z,84.91
2018-10-17T01:20:36.208Z,85.52
2018-10-17T01:25:38.352Z,84.86
2018-10-17T01:30:40.475Z,84.98
2018-10-17T01:35:42.599Z,85.10
2018-10-17T01:40:44.714Z,84.84
2018-10-17T01:45:46.847Z,83.76
2018-10-17T01:50:48.979Z,83.71
2018-10-17T01:55:51.111Z,84.57
2018-10-17T02:00:53.583Z,84.72
2018-10-17T02:05:55.689Z,85.11
2018-10-17T02:10:57.795Z,85.59
2018-10-17T02:16:00.169Z,84.64
2018-10-17T02:21:02.300Z,84.17
2018-10-17T02:26:04.443Z,84.67
2018-10-17T02:31:06.582Z,85.36
2018-10-17T02:36:08.691Z,85.01
2018-10-17T02:41:10.904Z,85.35
2018-10-17T02:46:12.954Z,85.86
2018-10-17T02:51:15.078Z,86.11
2018-10-17T02:56:17.201Z,87.22
2018-10-17T03:01:19.419Z,88.00
2018-10-17T03:06:21.537Z,87.71
2018-10-17T03:11:25.816Z,87.62
2018-10-17T03:16:28.296Z,87.75
2018-10-17T03:21:30.460Z,87.86
2018-10-17T03:26:32.581Z,88.96
2018-10-17T03:31:34.819Z,88.83
2018-10-17T03:36:36.946Z,88.67
2018-10-17T03:41:39.093Z,88.19
2018-10-17T03:46:41.191Z,88.25
2018-10-17T03:51:43.321Z,88.57
2018-10-17T03:56:45.438Z,88.25
2018-10-17T04:01:47.617Z,88.71
2018-10-17T04:06:49.748Z,88.86
2018-10-17T04:11:51.882Z,89.55
2018-10-17T04:16:54.080Z,90.34
2018-10-17T04:21:56.111Z,89.02
2018-10-17T04:26:58.295Z,89.16
2018-10-17T04:32:00.394Z,89.06
2018-10-17T04:37:02.583Z,89.04
2018-10-17T04:42:04.779Z,89.40
2018-10-17T04:47:07.000Z,88.88
2018-10-17T04:52:09.030Z,88.27
2018-10-17T04:57:11.160Z,89.66
2018-10-17T05:02:15.885Z,89.42
2018-10-17T05:07:18.091Z,90.19
2018-10-17T05:12:20.152Z,89.13
2018-10-17T05:17:22.300Z,89.21
2018-10-17T05:22:24.419Z,88.12
2018-10-17T05:27:26.576Z,88.01
2018-10-17T05:32:28.726Z,88.65
2018-10-17T05:37:31.153Z,88.45
2018-10-17T05:42:33.169Z,89.33
2018-10-17T05:47:35.317Z,88.67
2018-10-17T05:52:37.442Z,89.24
2018-10-17T05:57:39.575Z,89.65
2018-10-17T06:02:41.764Z,89.57
2018-10-17T06:07:43.861Z,88.53
2018-10-17T06:12:46.013Z,88.36
2018-10-17T06:17:48.124Z,88.68
2018-10-17T06:22:50.251Z,88.07
2018-10-17T06:27:52.882Z,88.37
2018-10-17T06:32:55.005Z,88.65
2018-10-17T06:37:57.171Z,88.74
2018-10-17T06:42:59.297Z,88.30
2018-10-17T06:48:01.439Z,88.17
2018-10-17T06:53:03.654Z,87.84
2018-10-17T06:58:05.722Z,87.93
2018-10-17T07:03:07.880Z,86.23
2018-10-17T07:08:10.016Z,87.11
2018-10-17T07:13:12.152Z,87.46
2018-10-17T07:18:14.279Z,87.68
2018-10-17T07:23:16.521Z,86.65
2018-10-17T07:28:18.592Z,87.16
2018-10-17T07:33:20.771Z,87.11
2018-10-17T07:38:22.907Z,86.94
2018-10-17T07:43:25.096Z,85.96
2018-10-17T07:48:27.406Z,85.54
2018-10-17T07:53:29.629Z,85.15
2018-10-17T07:58:31.861Z,83.97
2018-10-17T08:03:34.043Z,84.22
2018-10-17T08:08:36.170Z,84.70
2018-10-17T08:13:38.346Z,83.81
2018-10-17T08:18:40.473Z,84.04
2018-10-17T08:23:42.632Z,83.94
2018-10-17T08:28:44.789Z,84.50
2018-10-17T08:33:46.923Z,83.47
2018-10-17T08:38:49.133Z,82.62
2018-10-17T08:43:51.327Z,82.94
2018-10-17T08:48:53.418Z,82.52
2018-10-17T08:53:55.584Z,83.20
2018-10-17T08:58:57.730Z,80.11
2018-10-17T09:04:00.395Z,81.14
2018-10-17T09:09:04.173Z,79.33
2018-10-17T09:14:06.304Z,78.79
2018-10-17T09:19:09.134Z,76.43
2018-10-17T09:24:11.322Z,75.79
2018-10-17T09:29:13.316Z,75.79
2018-10-17T09:34:15.471Z,76.18
2018-10-17T09:39:17.497Z,75.84
2018-10-17T09:44:19.598Z,76.49
2018-10-17T09:49:21.692Z,75.54
2018-10-17T09:54:23.759Z,74.50
2018-10-17T09:59:25.855Z,75.09
2018-10-17T10:04:27.989Z,72.45
2018-10-17T10:09:30.068Z,71.71
2018-10-17T10:14:32.141Z,71.48
2018-10-17T10:19:34.220Z,71.31
2018-10-17T10:24:36.368Z,69.63
2018-10-17T10:29:38.393Z,69.53
2018-10-17T10:34:40.469Z,69.52
2018-10-17T10:39:42.596Z,69.38
2018-10-17T10:44:44.763Z,68.11
2018-10-17T10:49:46.793Z,66.12
2018-10-17T10:54:48.907Z,65.23
2018-10-17T10:59:50.977Z,64.37
2018-10-17T11:04:53.108Z,61.53
2018-10-17T11:09:55.183Z,60.76
2018-10-17T11:14:57.499Z,61.34
2018-10-17T11:20:00.203Z,59.45
2018-10-17T11:25:02.329Z,59.70
2018-10-17T11:30:05.968Z,58.47
2018-10-17T11:35:09.203Z,57.80
2018-10-17T11:40:11.392Z,54.77
2018-10-17T11:45:13.495Z,54.70
2018-10-17T11:50:15.529Z,54.97
2018-10-17T11:55:17.641Z,53.16
2018-10-17T12:00:19.697Z,52.55
2018-10-17T12:05:22.239Z,53.16
2018-10-17T12:10:23.943Z,52.58
2018-10-17T12:15:26.052Z,50.95
2018-10-17T12:20:28.137Z,51.56
2018-10-17T12:25:30.219Z,52.02
2018-10-17T12:30:32.280Z,52.02
2018-10-17T12:35:34.398Z,51.81
2018-10-17T12:40:36.756Z,51.45
2018-10-17T12:45:38.715Z,52.98
2018-10-17T12:50:40.781Z,51.93
2018-10-17T12:55:42.887Z,48.74
2018-10-17T13:00:45.018Z,48.82
2018-10-17T13:05:47.156Z,50.78
2018-10-17T13:10:49.305Z,51.39
2018-10-17T13:15:51.412Z,52.73
2018-10-17T13:20:53.569Z,53.29
2018-10-17T13:25:55.676Z,52.41
2018-10-17T13:30:57.825Z,52.04
2018-10-17T13:35:59.931Z,52.07
2018-10-17T13:41:02.137Z,51.60
2018-10-17T13:46:04.388Z,54.17
2018-10-17T13:51:06.547Z,54.31
2018-10-17T13:56:08.718Z,54.83
2018-10-17T14:01:10.928Z,53.70
2018-10-17T14:06:13.130Z,54.25
2018-10-17T14:11:15.552Z,54.78
2018-10-17T14:16:17.704Z,53.86
2018-10-17T14:21:19.895Z,53.62
2018-10-17T14:26:21.993Z,54.22
2018-10-17T14:31:24.117Z,54.84
2018-10-17T14:36:26.425Z,54.64
2018-10-17T14:41:28.397Z,56.41
2018-10-17T14:46:30.569Z,56.51
2018-10-17T14:51:32.731Z,56.76
2018-10-17T14:56:34.861Z,57.72
2018-10-17T15:01:37.028Z,58.92
2018-10-17T15:06:39.232Z,60.67
2018-10-17T15:11:41.450Z,60.26
2018-10-17T15:16:43.599Z,61.46
2018-10-17T15:21:45.879Z,61.95
2018-10-17T15:26:48.083Z,62.71
2018-10-17T15:31:50.332Z,63.43
2018-10-17T15:36:53.082Z,64.28
2018-10-17T15:41:55.303Z,64.38
2018-10-17T15:46:57.511Z,64.60
2018-10-17T15:51:59.716Z,65.13
2018-10-17T15:57:02.026Z,66.25
2018-10-17T16:02:05.727Z,66.09
2018-10-17T16:07:07.984Z,66.59
2018-10-17T16:12:10.282Z,67.21
2018-10-17T16:17:12.618Z,67.82
2018-10-17T16:22:14.817Z,67.88
2018-10-17T16:27:18.102Z,68.34
2018-10-17T16:32:20.688Z,68.95
2018-10-17T16:37:22.954Z,69.25
2018-10-17T16:42:25.207Z,70.16
2018-10-17T16:47:28.480Z,70.30
2018-10-17T16:52:30.783Z,71.80
2018-10-17T16:57:34.069Z,72.26
2018-10-17T17:07:52.863Z,70.89
2018-10-17T17:12:55.936Z,70.51
2018-10-17T17:17:59.055Z,70.10
2018-10-17T17:23:02.178Z,69.70
2018-10-17T17:28:05.147Z,69.69
2018-10-17T17:33:10.852Z,69.48
2018-10-17T17:38:14.233Z,69.33
2018-10-17T17:43:18.255Z,69.43
2018-10-17T17:48:22.675Z,69.77
2018-10-17T17:53:28.951Z,69.74
2018-10-17T17:58:33.651Z,68.77
2018-10-17T18:03:37.672Z,68.35
2018-10-17T18:14:00.052Z,67.48
2018-10-17T18:24:15.720Z,67.76
2018-10-17T18:29:19.302Z,67.85
2018-10-17T18:34:22.734Z,68.04
2018-10-17T18:39:28.543Z,68.95
2018-10-17T18:44:32.095Z,69.17
2018-10-17T18:49:37.108Z,69.47
2018-10-17T18:54:40.630Z,70.12
2018-10-17T18:59:43.685Z,69.82
2018-10-17T19:04:46.087Z,70.72
2018-10-17T19:09:49.734Z,69.47
2018-10-17T19:14:52.582Z,70.16
2018-10-17T19:19:56.140Z,70.83
2018-10-17T19:24:58.740Z,71.36
2018-10-17T19:30:01.306Z,71.04
2018-10-17T19:35:04.420Z,71.80
2018-10-17T19:40:07.868Z,71.77
2018-10-17T19:45:10.763Z,72.04
2018-10-17T19:50:12.933Z,71.63
2018-10-17T19:55:15.212Z,72.31
2018-10-17T20:00:17.395Z,71.62
2018-10-17T20:05:19.666Z,72.01
2018-10-17T20:10:21.924Z,72.42
2018-10-17T20:15:24.150Z,72.45
2018-10-17T20:20:26.660Z,72.67
2018-10-17T20:25:28.923Z,72.76
2018-10-17T20:30:31.105Z,72.92
2018-10-17T20:35:33.252Z,73.43
2018-10-17T20:40:35.417Z,73.78
2018-10-17T20:45:37.611Z,74.38
2018-10-17T20:50:39.767Z,76.48
2018-10-17T20:55:42.289Z,76.34
2018-10-17T21:00:44.540Z,79.44
2018-10-17T21:05:46.720Z,81.88
2018-10-17T21:10:48.924Z,83.93
2018-10-17T21:15:51.151Z,85.34
2018-10-17T21:20:53.743Z,86.61
2018-10-17T21:25:55.895Z,86.02
2018-10-17T21:30:58.050Z,86.12
2018-10-17T21:36:00.197Z,87.07
2018-10-17T21:41:02.337Z,86.81
2018-10-17T21:46:04.891Z,86.33
2018-10-17T21:51:07.040Z,86.33
2018-10-17T21:56:09.297Z,86.96
2018-10-17T22:01:11.410Z,86.28
2018-10-17T22:06:13.586Z,86.26
2018-10-17T22:11:15.728Z,86.80
2018-10-17T22:16:17.855Z,85.37
2018-10-17T22:21:20.031Z,86.18
2018-10-17T22:26:22.225Z,86.39
2018-10-17T22:31:24.396Z,85.07
2018-10-17T22:36:26.514Z,85.55
2018-10-17T22:41:28.696Z,84.86
2018-10-17T22:46:30.860Z,85.42
2018-10-17T22:51:33.011Z,85.72
2018-10-17T22:56:35.481Z,86.18
2018-10-17T23:01:37.823Z,85.18
2018-10-17T23:06:39.986Z,86.28
2018-10-17T23:11:42.843Z,85.67
2018-10-17T23:16:44.984Z,85.07
2018-10-17T23:21:47.161Z,83.96
2018-10-17T23:26:49.267Z,85.54
2018-10-17T23:31:51.406Z,86.55
2018-10-17T23:36:53.546Z,85.50
2018-10-17T23:41:55.639Z,84.72
2018-10-17T23:46:57.791Z,84.36
2018-10-17T23:51:59.952Z,83.88
2018-10-17T23:57:02.099Z,84.50
